Urb Santa Rita 3, Puerto Rico
Current Conditions -  °F | °C
As of 3:56 PM on Friday 24 Oct 2014 (Local Time) from TJSJ Reporting Station
Scattered Clouds Scattered Clouds  
Wind Chill: 90°   Ceiling: Unl
Heat Index: 99°   Visibility: 10mi
Dew Point: 74°   Wind: 8mph
Humidity: 59%   Direction: 120°ESE
Pressure: 29.86"   Gusts: NA
Location:  18.0474°N, 66.5517°W
Report Text: TJSJ 241956Z 12007KT 090V160 10SM FEW038 SCT080 SCT150 32/23 A2986 RMK AO2 SLP110 T03220233
Loading
Personal Weather Stations






























Interactive Weather Map
Tropical Storm Tracking
New forecast layout! Learn more

10-Day Weather Forecast

Advertisements
Track Severe Weather on mobile